createdAt,value
2018-09-27T00:00:00.784Z,2.77
2018-09-27T00:02:30.288Z,2.20
2018-09-27T00:04:59.884Z,2.30
2018-09-27T00:07:29.649Z,2.57
2018-09-27T00:09:58.830Z,2.37
2018-09-27T00:12:27.982Z,4.23
2018-09-27T00:14:57.486Z,2.57
2018-09-27T00:17:26.815Z,1.50
2018-09-27T00:19:56.067Z,1.80
2018-09-27T00:22:25.435Z,1.73
2018-09-27T00:24:54.796Z,4.33
2018-09-27T00:27:24.212Z,1.57
2018-09-27T00:29:53.698Z,7.87
2018-09-27T00:32:22.840Z,9.30
2018-09-27T00:34:52.236Z,9.13
2018-09-27T00:37:21.580Z,5.53
2018-09-27T00:39:50.816Z,2.43
2018-09-27T00:42:20.456Z,1.97
2018-09-27T00:44:49.894Z,2.70
2018-09-27T00:47:18.989Z,1.40
2018-09-27T00:49:48.375Z,1.90
2018-09-27T00:52:17.653Z,1.50
2018-09-27T00:54:46.885Z,1.70
2018-09-27T00:57:16.288Z,4.93
2018-09-27T00:59:46.048Z,1.57
2018-09-27T01:02:15.815Z,1.53
2018-09-27T01:04:45.135Z,2.10
2018-09-27T01:07:14.498Z,2.00
2018-09-27T01:09:44.187Z,2.77
2018-09-27T01:12:13.739Z,3.67
2018-09-27T01:14:43.120Z,3.60
2018-09-27T01:17:12.216Z,3.80
2018-09-27T01:19:41.700Z,3.27
2018-09-27T01:22:11.392Z,3.80
2018-09-27T01:24:40.631Z,2.33
2018-09-27T01:27:09.935Z,2.27
2018-09-27T01:29:39.160Z,3.70
2018-09-27T01:32:08.460Z,1.50
2018-09-27T01:34:37.392Z,1.60
2018-09-27T01:37:06.881Z,2.10
2018-09-27T01:39:35.908Z,1.63
2018-09-27T01:42:05.243Z,1.40
2018-09-27T01:44:34.953Z,1.73
2018-09-27T01:47:04.224Z,1.50
2018-09-27T01:49:34.302Z,2.07
2018-09-27T01:52:03.492Z,1.93
2018-09-27T01:54:32.595Z,2.37
2018-09-27T01:57:01.812Z,2.00
2018-09-27T01:59:31.281Z,1.50
2018-09-27T02:02:00.720Z,1.60
2018-09-27T02:04:29.937Z,1.30
2018-09-27T02:06:59.284Z,2.43
2018-09-27T02:09:28.872Z,2.37
2018-09-27T02:11:58.244Z,1.47
2018-09-27T02:14:28.740Z,2.07
2018-09-27T02:16:58.033Z,1.77
2018-09-27T02:19:27.348Z,1.80
2018-09-27T02:21:56.604Z,1.73
2018-09-27T02:24:26.576Z,1.53
2018-09-27T02:26:55.925Z,1.97
2018-09-27T02:29:25.375Z,1.40
2018-09-27T02:31:54.759Z,1.63
2018-09-27T02:34:24.435Z,1.50
2018-09-27T02:36:53.717Z,2.20
2018-09-27T02:39:22.915Z,2.23
2018-09-27T02:41:52.239Z,4.40
2018-09-27T02:44:21.848Z,7.53
2018-09-27T02:46:50.893Z,3.03
2018-09-27T02:49:20.188Z,8.37
2018-09-27T02:51:49.485Z,7.67
2018-09-27T02:54:18.760Z,9.47
2018-09-27T02:56:48.281Z,17.27
2018-09-27T02:59:17.803Z,3.43
2018-09-27T03:01:46.956Z,2.03
2018-09-27T03:04:16.402Z,2.07
2018-09-27T03:06:45.921Z,1.80
2018-09-27T03:09:15.175Z,2.53
2018-09-27T03:11:44.412Z,2.77
2018-09-27T03:14:13.888Z,2.53
2018-09-27T03:16:43.298Z,5.30
2018-09-27T03:19:12.400Z,2.23
2018-09-27T03:21:41.659Z,2.13
2018-09-27T03:24:11.220Z,2.63
2018-09-27T03:26:40.361Z,2.73
2018-09-27T03:29:09.765Z,1.70
2018-09-27T03:31:39.230Z,3.17
2018-09-27T03:34:08.649Z,4.43
2018-09-27T03:36:38.038Z,3.23
2018-09-27T03:39:08.596Z,4.87
2018-09-27T03:41:37.569Z,4.63
2018-09-27T03:44:07.196Z,3.03
2018-09-27T03:46:36.756Z,3.30
2018-09-27T03:49:06.171Z,2.63
2018-09-27T03:51:35.273Z,2.63
2018-09-27T03:54:04.565Z,3.80
2018-09-27T03:56:33.846Z,2.17
2018-09-27T03:59:03.897Z,1.70
2018-09-27T04:01:33.771Z,2.00
2018-09-27T04:04:03.108Z,4.00
2018-09-27T04:06:32.421Z,3.60
2018-09-27T04:09:01.767Z,1.83
2018-09-27T04:11:30.962Z,2.00
2018-09-27T04:14:00.484Z,2.20
2018-09-27T04:16:29.744Z,3.43
2018-09-27T04:18:59.209Z,2.33
2018-09-27T04:21:28.489Z,3.27
2018-09-27T04:23:57.921Z,2.67
2018-09-27T04:26:27.348Z,3.03
2018-09-27T04:28:56.668Z,2.73
2018-09-27T04:31:25.924Z,2.53
2018-09-27T04:33:55.282Z,1.70
2018-09-27T04:36:24.752Z,3.00
2018-09-27T04:38:53.850Z,3.80
2018-09-27T04:41:23.434Z,2.33
2018-09-27T04:43:53.005Z,3.15
2018-09-27T04:46:22.247Z,2.63
2018-09-27T04:48:51.874Z,3.40
2018-09-27T04:51:21.429Z,2.97
2018-09-27T04:53:50.884Z,4.27
2018-09-27T04:56:20.177Z,5.87
2018-09-27T04:58:49.685Z,7.53
2018-09-27T05:01:18.954Z,5.70
2018-09-27T05:03:48.086Z,4.33
2018-09-27T05:06:17.889Z,4.30
2018-09-27T05:08:47.361Z,2.23
2018-09-27T05:11:16.772Z,2.53
2018-09-27T05:13:46.579Z,2.20
2018-09-27T05:16:16.143Z,3.13
2018-09-27T05:18:45.680Z,3.40
2018-09-27T05:21:15.180Z,2.80
2018-09-27T05:23:44.344Z,2.90
2018-09-27T05:26:13.820Z,2.77
2018-09-27T05:28:43.422Z,4.17
2018-09-27T05:31:13.008Z,4.43
2018-09-27T05:33:42.448Z,3.43
2018-09-27T05:36:12.028Z,7.23
2018-09-27T05:38:41.621Z,6.40
2018-09-27T05:41:10.995Z,6.23
2018-09-27T05:43:40.360Z,7.83
2018-09-27T05:46:09.989Z,5.27
2018-09-27T05:48:39.633Z,6.57
2018-09-27T05:51:09.216Z,12.50
2018-09-27T05:53:38.976Z,11.97
2018-09-27T05:56:08.172Z,4.77
2018-09-27T05:58:38.113Z,3.77
2018-09-27T06:01:07.589Z,8.40
2018-09-27T06:03:36.847Z,3.73
2018-09-27T06:06:06.168Z,7.63
2018-09-27T06:08:35.604Z,3.60
2018-09-27T06:11:04.859Z,8.27
2018-09-27T06:13:34.290Z,4.10
2018-09-27T06:16:03.632Z,3.67
2018-09-27T06:18:32.943Z,3.30
2018-09-27T06:21:03.419Z,3.43
2018-09-27T06:23:32.889Z,4.50
2018-09-27T06:26:02.368Z,6.13
2018-09-27T06:28:31.955Z,3.77
2018-09-27T06:31:01.265Z,4.17
2018-09-27T06:33:30.758Z,2.40
2018-09-27T06:36:00.225Z,2.87
2018-09-27T06:38:29.867Z,3.00
2018-09-27T06:40:59.068Z,2.57
2018-09-27T06:43:28.579Z,1.80
2018-09-27T06:45:57.879Z,4.13
2018-09-27T06:48:27.309Z,2.53
2018-09-27T06:50:56.660Z,14.70
2018-09-27T06:53:26.150Z,3.83
2018-09-27T06:55:55.660Z,3.17
2018-09-27T06:58:24.863Z,2.93
2018-09-27T07:00:54.173Z,4.53
2018-09-27T07:03:23.498Z,3.87
2018-09-27T07:05:52.957Z,2.57
2018-09-27T07:08:22.519Z,4.47
2018-09-27T07:10:51.525Z,6.97
2018-09-27T07:13:21.001Z,13.60
2018-09-27T07:15:50.544Z,13.83
2018-09-27T07:18:19.816Z,16.47
2018-09-27T07:20:49.093Z,8.90
2018-09-27T07:23:18.375Z,8.97
2018-09-27T07:25:47.981Z,10.43
2018-09-27T07:28:17.408Z,7.87
2018-09-27T07:30:46.722Z,8.87
2018-09-27T07:33:15.856Z,5.83
2018-09-27T07:35:45.463Z,4.93
2018-09-27T07:38:15.024Z,2.77
2018-09-27T07:40:44.206Z,5.63
2018-09-27T07:43:13.502Z,6.47
2018-09-27T07:45:42.900Z,9.27
2018-09-27T07:48:12.090Z,5.30
2018-09-27T07:50:41.614Z,7.17
2018-09-27T07:53:11.080Z,4.47
2018-09-27T07:55:40.895Z,3.50
2018-09-27T07:58:10.769Z,4.07
2018-09-27T08:00:40.535Z,4.37
2018-09-27T08:03:10.144Z,4.40
2018-09-27T08:05:39.741Z,3.70
2018-09-27T08:08:09.464Z,1.93
2018-09-27T08:10:38.933Z,2.73
2018-09-27T08:13:09.280Z,4.70
2018-09-27T08:15:39.164Z,11.63
2018-09-27T08:18:08.676Z,5.83
2018-09-27T08:20:38.312Z,22.60
2018-09-27T08:23:07.513Z,20.13
2018-09-27T08:25:36.948Z,16.97
2018-09-27T08:28:06.501Z,29.00
2018-09-27T08:30:35.960Z,27.13
2018-09-27T08:33:05.416Z,25.13
2018-09-27T08:35:34.917Z,9.87
2018-09-27T08:38:04.538Z,3.90
2018-09-27T08:40:33.953Z,4.90
2018-09-27T08:43:03.152Z,5.37
2018-09-27T08:45:32.740Z,3.27
2018-09-27T08:48:01.975Z,4.57
2018-09-27T08:50:33.221Z,3.83
2018-09-27T08:53:02.668Z,4.13
2018-09-27T08:55:32.151Z,5.77
2018-09-27T08:58:02.576Z,7.53
2018-09-27T09:00:32.125Z,5.97
2018-09-27T09:03:01.555Z,4.50
2018-09-27T09:05:30.929Z,4.37
2018-09-27T09:08:00.498Z,6.30
2018-09-27T09:10:29.740Z,27.73
2018-09-27T09:12:59.311Z,24.47
2018-09-27T09:15:28.954Z,10.60
2018-09-27T09:17:58.530Z,19.57
2018-09-27T09:20:27.732Z,18.10
2018-09-27T09:22:56.857Z,11.90
2018-09-27T09:25:26.365Z,12.80
2018-09-27T09:27:55.768Z,15.23
2018-09-27T09:30:25.418Z,8.30
2018-09-27T09:32:54.671Z,7.73
2018-09-27T09:35:24.225Z,7.63
2018-09-27T09:37:53.375Z,7.33
2018-09-27T09:40:23.016Z,5.73
2018-09-27T09:42:52.390Z,6.40
2018-09-27T09:45:21.659Z,6.90
2018-09-27T09:47:51.335Z,10.93
2018-09-27T09:50:21.217Z,5.70
2018-09-27T09:52:50.439Z,6.03
2018-09-27T09:55:19.871Z,2.83
2018-09-27T09:57:49.270Z,2.70
2018-09-27T10:00:18.633Z,3.13
2018-09-27T10:02:47.708Z,2.50
2018-09-27T10:05:18.373Z,2.67
2018-09-27T10:07:47.763Z,2.70
2018-09-27T10:10:17.757Z,2.57
2018-09-27T10:12:46.955Z,2.47
2018-09-27T10:15:16.218Z,3.77
2018-09-27T10:17:45.529Z,2.80
2018-09-27T10:20:15.182Z,2.67
2018-09-27T10:22:44.775Z,2.43
2018-09-27T10:25:14.273Z,2.93
2018-09-27T10:27:43.619Z,2.73
2018-09-27T10:30:13.743Z,2.83
2018-09-27T10:32:43.413Z,4.47
2018-09-27T10:35:12.817Z,2.37
2018-09-27T10:37:42.269Z,3.60
2018-09-27T10:40:11.659Z,3.60
2018-09-27T10:42:41.536Z,3.30
2018-09-27T10:45:10.966Z,2.20
2018-09-27T10:47:40.699Z,2.47
2018-09-27T10:50:10.041Z,2.20
2018-09-27T10:52:39.879Z,1.20
2018-09-27T10:55:10.016Z,2.83
2018-09-27T10:57:39.748Z,3.02
2018-09-27T11:00:08.913Z,2.02
2018-09-27T11:02:38.552Z,1.00
2018-09-27T11:05:08.120Z,2.20
2018-09-27T11:07:38.112Z,2.02
2018-09-27T11:10:13.058Z,1.75
2018-09-27T11:12:43.655Z,1.60
2018-09-27T11:15:18.589Z,2.67
2018-09-27T11:17:49.164Z,2.50
2018-09-27T11:20:18.608Z,2.20
2018-09-27T11:22:48.240Z,1.50
2018-09-27T11:25:17.636Z,2.25
2018-09-27T11:27:47.184Z,1.95
2018-09-27T11:30:22.540Z,1.85
2018-09-27T11:32:52.255Z,2.35
2018-09-27T11:35:26.054Z,3.60
2018-09-27T11:37:55.087Z,4.37
2018-09-27T11:40:24.545Z,3.40
2018-09-27T11:42:54.015Z,4.03
2018-09-27T11:45:23.420Z,3.85
2018-09-27T11:47:52.902Z,3.83
2018-09-27T11:50:22.607Z,3.92
2018-09-27T11:52:52.180Z,2.27
2018-09-27T11:55:21.330Z,2.42
2018-09-27T11:57:50.855Z,2.90
2018-09-27T12:00:20.510Z,3.35
2018-09-27T12:02:49.725Z,2.72
2018-09-27T12:05:19.208Z,7.35
2018-09-27T12:07:48.717Z,6.22
2018-09-27T12:10:20.971Z,3.50
2018-09-27T12:12:50.287Z,3.70
2018-09-27T12:15:19.546Z,3.15
2018-09-27T12:17:48.875Z,3.00
2018-09-27T12:20:19.781Z,2.87
2018-09-27T12:22:49.102Z,4.20
2018-09-27T12:25:18.553Z,3.70
2018-09-27T12:27:47.742Z,3.62
2018-09-27T12:30:17.700Z,2.37
2018-09-27T12:32:46.771Z,4.85
2018-09-27T12:35:16.168Z,3.00
2018-09-27T12:37:45.525Z,4.97
2018-09-27T12:40:15.728Z,3.35
2018-09-27T12:42:45.228Z,3.75
2018-09-27T12:45:14.763Z,3.85
2018-09-27T12:47:44.752Z,3.00
2018-09-27T12:50:16.120Z,3.42
2018-09-27T12:52:45.791Z,2.85
2018-09-27T12:55:15.119Z,2.67
2018-09-27T12:57:44.664Z,2.67
2018-09-27T13:00:15.493Z,3.62
2018-09-27T13:02:45.128Z,2.67
2018-09-27T13:05:14.297Z,2.60
2018-09-27T13:07:45.837Z,3.25
2018-09-27T13:10:17.131Z,2.22
2018-09-27T13:12:46.875Z,2.60
2018-09-27T13:15:16.334Z,2.77
2018-09-27T13:17:45.688Z,2.83
2018-09-27T13:20:18.199Z,3.15
2018-09-27T13:22:47.556Z,3.85
2018-09-27T13:25:17.254Z,4.20
2018-09-27T13:27:46.614Z,3.30
2018-09-27T13:30:17.562Z,3.80
2018-09-27T13:32:46.820Z,2.75
2018-09-27T13:35:16.372Z,3.02
2018-09-27T13:37:45.482Z,3.57
2018-09-27T13:40:16.949Z,3.02
2018-09-27T13:42:46.059Z,3.47
2018-09-27T13:45:15.284Z,3.33
2018-09-27T13:47:44.941Z,3.77
2018-09-27T13:50:14.788Z,4.23
2018-09-27T13:52:47.145Z,5.20
2018-09-27T13:55:16.686Z,3.77
2018-09-27T13:57:47.727Z,2.87
2018-09-27T14:00:17.024Z,3.90
2018-09-27T14:02:46.387Z,5.30
2018-09-27T14:05:15.707Z,3.70
2018-09-27T14:07:44.765Z,3.77
2018-09-27T14:10:14.417Z,5.00
2018-09-27T14:12:43.920Z,3.83
2018-09-27T14:15:13.302Z,7.80
2018-09-27T14:17:42.537Z,4.13
2018-09-27T14:20:12.253Z,5.40
2018-09-27T14:22:41.928Z,3.27
2018-09-27T14:25:11.979Z,4.77
2018-09-27T14:27:41.714Z,5.93
2018-09-27T14:30:12.098Z,5.93
2018-09-27T14:32:42.365Z,15.50
2018-09-27T14:35:11.557Z,21.10
2018-09-27T14:37:40.894Z,10.90
2018-09-27T14:40:10.843Z,7.37
2018-09-27T14:42:40.659Z,11.30
2018-09-27T14:45:10.323Z,8.60
2018-09-27T14:47:42.785Z,6.30
2018-09-27T14:50:14.626Z,6.43
2018-09-27T14:52:43.813Z,6.10
2018-09-27T14:55:13.029Z,4.33
2018-09-27T14:57:42.519Z,4.17
2018-09-27T15:00:12.201Z,4.93
2018-09-27T15:02:42.322Z,6.90
2018-09-27T15:05:11.392Z,8.27
2018-09-27T15:07:40.615Z,5.63
2018-09-27T15:10:10.315Z,4.27
2018-09-27T15:12:39.947Z,5.97
2018-09-27T15:15:09.545Z,6.20
2018-09-27T15:17:39.108Z,4.40
2018-09-27T15:20:08.603Z,5.17
2018-09-27T15:22:39.571Z,5.00
2018-09-27T15:25:08.885Z,5.13
2018-09-27T15:27:38.800Z,5.50
2018-09-27T15:30:08.096Z,5.13
2018-09-27T15:32:37.841Z,5.50
2018-09-27T15:35:07.387Z,6.33
2018-09-27T15:37:37.603Z,6.00
2018-09-27T15:40:07.209Z,7.00
2018-09-27T15:42:36.581Z,5.93
2018-09-27T15:45:06.032Z,7.60
2018-09-27T15:47:35.484Z,9.87
2018-09-27T15:50:04.964Z,9.07
2018-09-27T15:52:34.735Z,19.60
2018-09-27T15:55:04.324Z,15.20
2018-09-27T15:57:33.668Z,16.77
2018-09-27T16:00:03.942Z,12.13
2018-09-27T16:02:33.104Z,8.77
2018-09-27T16:05:02.715Z,7.00
2018-09-27T16:07:33.074Z,8.43
2018-09-27T16:10:02.436Z,6.97
2018-09-27T16:12:32.020Z,9.97
2018-09-27T16:15:01.137Z,8.93
2018-09-27T16:17:30.487Z,8.97
2018-09-27T16:19:59.780Z,13.07
2018-09-27T16:22:29.365Z,8.07
2018-09-27T16:24:58.634Z,7.87
2018-09-27T16:27:27.829Z,9.97
2018-09-27T16:29:57.144Z,8.87
2018-09-27T16:32:27.024Z,23.60
2018-09-27T16:34:56.118Z,10.67
2018-09-27T16:37:25.420Z,10.90
2018-09-27T16:39:55.019Z,14.07
2018-09-27T16:42:25.418Z,12.27
2018-09-27T16:44:55.076Z,38.93
2018-09-27T16:47:25.243Z,68.40
2018-09-27T16:49:54.991Z,45.70
2018-09-27T16:52:26.184Z,37.90
2018-09-27T16:54:55.928Z,29.93
2018-09-27T16:57:25.228Z,29.00
2018-09-27T16:59:54.685Z,43.50
2018-09-27T17:02:24.611Z,48.57
2018-09-27T17:04:54.793Z,30.50
2018-09-27T17:07:23.876Z,34.83
2018-09-27T17:09:53.567Z,40.90
2018-09-27T17:12:23.073Z,33.40
2018-09-27T17:14:52.641Z,39.17
2018-09-27T17:17:22.333Z,49.23
2018-09-27T17:19:56.782Z,45.93
2018-09-27T17:22:27.339Z,41.10
2018-09-27T17:24:56.806Z,41.73
2018-09-27T17:27:26.461Z,37.10
2018-09-27T17:29:55.899Z,35.00
2018-09-27T17:32:25.173Z,38.50
2018-09-27T17:34:54.357Z,50.30
2018-09-27T17:37:23.898Z,51.17
2018-09-27T17:39:53.510Z,51.93
2018-09-27T17:42:23.690Z,52.63
2018-09-27T17:44:52.897Z,55.97
2018-09-27T17:47:21.900Z,62.10
2018-09-27T17:49:51.427Z,60.10
2018-09-27T17:52:21.048Z,67.50
2018-09-27T17:54:50.791Z,74.70
2018-09-27T17:57:23.389Z,70.43
2018-09-27T17:59:55.121Z,74.23
2018-09-27T18:02:25.033Z,83.00
2018-09-27T18:04:54.964Z,73.00
2018-09-27T18:07:24.372Z,72.93
2018-09-27T18:09:53.647Z,70.33
2018-09-27T18:12:23.406Z,51.30
2018-09-27T18:14:53.688Z,56.20
2018-09-27T18:17:22.853Z,61.97
2018-09-27T18:19:52.117Z,68.57
2018-09-27T18:22:21.669Z,68.53
2018-09-27T18:24:51.289Z,65.83
2018-09-27T18:27:20.804Z,81.27
2018-09-27T18:29:49.832Z,90.43
2018-09-27T18:32:19.037Z,77.93
2018-09-27T18:34:48.308Z,75.33
2018-09-27T18:37:17.745Z,76.07
2018-09-27T18:39:47.060Z,57.37
2018-09-27T18:42:16.273Z,67.77
2018-09-27T18:44:45.689Z,57.07
2018-09-27T18:47:15.189Z,52.20
2018-09-27T18:49:44.706Z,51.67
2018-09-27T18:52:14.155Z,51.13
2018-09-27T18:54:43.708Z,48.77
2018-09-27T18:57:12.980Z,51.63
2018-09-27T18:59:42.628Z,45.13
2018-09-27T19:02:12.008Z,45.80
2018-09-27T19:04:41.336Z,42.20
2018-09-27T19:07:11.136Z,46.90
2018-09-27T19:09:41.316Z,52.07
2018-09-27T19:12:10.535Z,56.47
2018-09-27T19:14:39.775Z,72.27
2018-09-27T19:17:08.970Z,67.17
2018-09-27T19:19:38.273Z,74.57
2018-09-27T19:22:07.847Z,61.43
2018-09-27T19:24:37.031Z,66.20
2018-09-27T19:27:06.321Z,72.17
2018-09-27T19:29:35.759Z,67.50
2018-09-27T19:32:04.884Z,73.40
2018-09-27T19:34:34.091Z,82.40
2018-09-27T19:37:03.359Z,103.23
2018-09-27T19:39:33.708Z,65.37
2018-09-27T19:42:02.886Z,69.00
2018-09-27T19:44:32.903Z,59.97
2018-09-27T19:47:03.101Z,49.80
2018-09-27T19:49:32.740Z,56.20
2018-09-27T19:52:03.711Z,47.97
2018-09-27T19:54:32.830Z,53.50
2018-09-27T19:57:02.292Z,49.47
2018-09-27T19:59:31.724Z,48.53
2018-09-27T20:02:00.993Z,45.23
2018-09-27T20:04:30.686Z,45.57
2018-09-27T20:07:00.017Z,39.40
2018-09-27T20:09:29.349Z,41.37
2018-09-27T20:11:58.743Z,44.97
2018-09-27T20:14:28.152Z,47.30
2018-09-27T20:16:57.505Z,58.50
2018-09-27T20:19:27.282Z,55.53
2018-09-27T20:21:56.427Z,60.70
2018-09-27T20:24:26.025Z,59.67
2018-09-27T20:26:55.824Z,66.93
2018-09-27T20:29:25.558Z,79.43
2018-09-27T20:31:54.875Z,76.70
2018-09-27T20:34:24.543Z,59.23
2018-09-27T20:36:54.122Z,51.97
2018-09-27T20:39:25.525Z,60.27
2018-09-27T20:41:55.008Z,59.63
2018-09-27T20:44:24.617Z,55.43
2018-09-27T20:46:54.518Z,50.47
2018-09-27T20:49:24.121Z,46.97
2018-09-27T20:51:53.383Z,49.60
2018-09-27T20:54:22.600Z,44.90
2018-09-27T20:56:52.340Z,44.33
2018-09-27T20:59:21.731Z,47.63
2018-09-27T21:01:51.232Z,44.33
2018-09-27T21:04:20.829Z,46.30
2018-09-27T21:06:50.147Z,42.93
2018-09-27T21:09:19.395Z,39.93
2018-09-27T21:11:48.491Z,42.83
2018-09-27T21:14:17.892Z,44.10
2018-09-27T21:16:47.513Z,41.63
2018-09-27T21:19:16.851Z,41.53
2018-09-27T21:21:46.038Z,51.33
2018-09-27T21:24:15.976Z,51.03
2018-09-27T21:26:45.436Z,51.67
2018-09-27T21:29:14.613Z,59.77
2018-09-27T21:31:44.530Z,57.17
2018-09-27T21:34:13.807Z,58.60
2018-09-27T21:36:42.913Z,52.87
2018-09-27T21:39:12.063Z,49.50
2018-09-27T21:41:41.264Z,49.80
2018-09-27T21:44:10.716Z,45.87
2018-09-27T21:46:40.112Z,56.20
2018-09-27T21:49:09.280Z,63.87
2018-09-27T21:51:39.139Z,63.63
2018-09-27T21:54:08.948Z,64.97
2018-09-27T21:56:38.175Z,59.87
2018-09-27T21:59:07.134Z,58.07
2018-09-27T22:01:36.648Z,52.97
2018-09-27T22:04:06.239Z,49.43
2018-09-27T22:06:35.477Z,47.03
2018-09-27T22:09:06.970Z,53.40
2018-09-27T22:11:35.932Z,46.00
2018-09-27T22:14:05.240Z,44.03
2018-09-27T22:16:34.488Z,50.40
2018-09-27T22:19:04.048Z,103.03
2018-09-27T22:21:33.068Z,75.57
2018-09-27T22:24:02.598Z,87.30
2018-09-27T22:26:31.868Z,52.50
2018-09-27T22:29:01.186Z,60.20
2018-09-27T22:31:30.707Z,56.53
2018-09-27T22:33:59.868Z,58.70
2018-09-27T22:36:29.331Z,52.87
2018-09-27T22:38:59.335Z,59.30
2018-09-27T22:41:28.525Z,57.33
2018-09-27T22:43:57.779Z,143.93
2018-09-27T22:46:26.947Z,186.77
2018-09-27T22:48:56.065Z,110.63
2018-09-27T22:51:25.324Z,84.70
2018-09-27T22:53:54.953Z,97.83
2018-09-27T22:56:23.975Z,87.83
2018-09-27T22:58:53.253Z,61.93
2018-09-27T23:01:22.399Z,53.33
2018-09-27T23:03:51.529Z,78.73
2018-09-27T23:06:20.756Z,64.87
2018-09-27T23:08:50.201Z,53.83
2018-09-27T23:11:19.491Z,53.97
2018-09-27T23:13:48.793Z,48.53
2018-09-27T23:16:18.148Z,46.97
2018-09-27T23:18:47.554Z,39.80
2018-09-27T23:21:16.930Z,40.57
2018-09-27T23:23:46.635Z,39.33
2018-09-27T23:26:15.968Z,47.07
2018-09-27T23:28:45.583Z,50.03
2018-09-27T23:31:14.872Z,50.57
2018-09-27T23:33:44.725Z,47.80
2018-09-27T23:36:14.072Z,49.30
2018-09-27T23:38:43.276Z,49.20
2018-09-27T23:41:12.372Z,46.00
2018-09-27T23:43:41.816Z,51.43
2018-09-27T23:46:11.881Z,50.70
2018-09-27T23:48:41.277Z,40.97
2018-09-27T23:51:10.696Z,32.07
2018-09-27T23:53:39.892Z,30.40
2018-09-27T23:56:09.504Z,24.27
2018-09-27T23:58:38.633Z,25.07
